createdAt,value
2023-02-16T00:01:24.934Z,77.13
2023-02-16T00:03:53.273Z,82.35
2023-02-16T00:06:21.079Z,69.93
2023-02-16T00:08:50.470Z,80.97
2023-02-16T00:11:40.519Z,80.05
2023-02-16T00:14:10.364Z,74.10
2023-02-16T00:16:37.553Z,75.68
2023-02-16T00:19:18.501Z,72.40
2023-02-16T00:21:47.804Z,79.03
2023-02-16T00:24:17.131Z,71.47
2023-02-16T00:26:44.657Z,86.28
2023-02-16T00:29:20.124Z,83.00
2023-02-16T00:31:47.857Z,76.20
2023-02-16T00:34:38.117Z,87.45
2023-02-16T00:37:10.881Z,78.82
2023-02-16T00:39:39.351Z,75.45
2023-02-16T00:42:06.954Z,117.60
2023-02-16T00:44:34.173Z,114.07
2023-02-16T00:47:22.708Z,101.10
2023-02-16T00:49:52.144Z,150.23
2023-02-16T00:52:38.417Z,109.95
2023-02-16T00:55:09.196Z,100.70
2023-02-16T00:57:41.706Z,94.85
2023-02-16T01:00:09.363Z,96.90
2023-02-16T01:02:37.163Z,76.65
2023-02-16T01:05:04.524Z,95.13
2023-02-16T01:07:50.873Z,99.72
2023-02-16T01:10:38.336Z,86.60
2023-02-16T01:13:06.059Z,93.68
2023-02-16T01:15:33.119Z,92.60
2023-02-16T01:18:00.855Z,78.15
2023-02-16T01:20:28.598Z,81.30
2023-02-16T01:22:56.332Z,90.20
2023-02-16T01:25:23.839Z,77.15
2023-02-16T01:27:51.622Z,81.88
2023-02-16T01:30:23.293Z,90.68
2023-02-16T01:32:53.697Z,91.13
2023-02-16T01:35:29.060Z,85.05
2023-02-16T01:37:56.232Z,95.00
2023-02-16T01:40:35.611Z,85.40
2023-02-16T01:43:05.175Z,85.38
2023-02-16T01:45:38.347Z,85.10
2023-02-16T01:48:09.865Z,79.65
2023-02-16T01:51:06.004Z,70.18
2023-02-16T01:53:57.763Z,75.00
2023-02-16T01:56:46.232Z,86.47
2023-02-16T01:59:33.422Z,80.32
2023-02-16T02:02:06.146Z,100.18
2023-02-16T02:05:06.443Z,86.90
2023-02-16T02:07:36.197Z,106.25
2023-02-16T02:10:37.901Z,84.57
2023-02-16T02:13:11.416Z,81.95
2023-02-16T02:15:38.992Z,105.43
2023-02-16T02:18:06.245Z,95.68
2023-02-16T02:21:26.446Z,105.03
2023-02-16T02:24:05.456Z,96.20
2023-02-16T02:27:06.330Z,99.30
2023-02-16T02:29:45.896Z,91.97
2023-02-16T02:32:41.602Z,103.38
2023-02-16T02:35:08.940Z,102.95
2023-02-16T02:37:58.054Z,111.53
2023-02-16T02:40:54.561Z,100.50
2023-02-16T02:43:41.289Z,90.65
2023-02-16T02:46:18.397Z,115.93
2023-02-16T02:48:46.009Z,90.38
2023-02-16T02:51:30.530Z,95.75
2023-02-16T02:54:29.843Z,108.93
2023-02-16T02:57:19.153Z,99.20
2023-02-16T03:00:19.053Z,113.57
2023-02-16T03:02:49.253Z,99.65
2023-02-16T03:05:20.536Z,111.25
2023-02-16T03:07:53.901Z,85.80
2023-02-16T03:10:45.989Z,97.43
2023-02-16T03:13:18.761Z,103.18
2023-02-16T03:15:48.220Z,112.45
2023-02-16T03:18:38.311Z,95.00
2023-02-16T03:21:25.074Z,86.07
2023-02-16T03:24:10.659Z,97.13
2023-02-16T03:26:56.836Z,91.20
2023-02-16T03:29:26.047Z,98.50
2023-02-16T03:31:55.653Z,85.15
2023-02-16T03:34:23.547Z,98.35
2023-02-16T03:36:54.997Z,97.68
2023-02-16T03:39:21.867Z,87.40
2023-02-16T03:41:51.875Z,88.72
2023-02-16T03:44:18.775Z,90.22
2023-02-16T03:46:46.890Z,87.68
2023-02-16T03:49:13.613Z,85.70
2023-02-16T03:51:40.724Z,82.60
2023-02-16T03:54:07.987Z,104.85
2023-02-16T03:56:35.174Z,113.40
2023-02-16T03:59:02.688Z,94.68
2023-02-16T04:01:29.448Z,93.78
2023-02-16T04:03:56.571Z,91.10
2023-02-16T04:06:23.349Z,93.30
2023-02-16T04:08:51.459Z,100.65
2023-02-16T04:11:36.892Z,104.28
2023-02-16T04:14:04.019Z,99.18
2023-02-16T04:16:30.808Z,85.72
2023-02-16T04:18:58.018Z,83.53
2023-02-16T04:21:24.739Z,93.43
2023-02-16T04:23:51.862Z,78.55
2023-02-16T04:26:19.154Z,92.03
2023-02-16T04:28:46.015Z,85.82
2023-02-16T04:31:13.386Z,78.65
2023-02-16T04:33:40.202Z,81.28
2023-02-16T04:36:08.015Z,99.68
2023-02-16T04:38:34.800Z,98.60
2023-02-16T04:41:02.218Z,95.70
2023-02-16T04:43:29.617Z,102.13
2023-02-16T04:46:00.570Z,78.28
2023-02-16T04:48:27.901Z,85.78
2023-02-16T04:50:54.659Z,75.28
2023-02-16T04:53:21.796Z,85.20
2023-02-16T04:55:49.639Z,88.63
2023-02-16T04:58:18.280Z,91.65
2023-02-16T05:00:45.172Z,86.28
2023-02-16T05:03:11.904Z,92.28
2023-02-16T05:05:38.660Z,96.30
2023-02-16T05:08:05.862Z,79.97
2023-02-16T05:10:33.210Z,83.60
2023-02-16T05:13:18.442Z,79.13
2023-02-16T05:15:45.333Z,110.47
2023-02-16T05:18:12.693Z,99.07
2023-02-16T05:20:58.319Z,100.63
2023-02-16T05:23:25.527Z,94.15
2023-02-16T05:25:52.272Z,98.68
2023-02-16T05:28:19.047Z,95.80
2023-02-16T05:30:45.873Z,82.90
2023-02-16T05:33:13.151Z,98.20
2023-02-16T05:35:40.369Z,82.97
2023-02-16T05:38:07.652Z,88.28
2023-02-16T05:40:35.201Z,99.35
2023-02-16T05:43:02.699Z,99.68
2023-02-16T05:45:29.902Z,90.75
2023-02-16T05:47:57.458Z,86.25
2023-02-16T05:50:24.207Z,88.18
2023-02-16T05:52:51.835Z,90.43
2023-02-16T05:55:23.089Z,104.47
2023-02-16T05:57:49.869Z,77.15
2023-02-16T06:00:17.029Z,94.35
2023-02-16T06:02:43.971Z,93.47
2023-02-16T06:05:10.777Z,101.28
2023-02-16T06:07:37.585Z,108.93
2023-02-16T06:10:05.744Z,98.30
2023-02-16T06:12:34.571Z,124.55
2023-02-16T06:15:02.060Z,109.95
2023-02-16T06:17:28.880Z,105.00
2023-02-16T06:19:56.021Z,106.13
2023-02-16T06:22:22.811Z,106.93
2023-02-16T06:24:49.569Z,90.47
2023-02-16T06:27:16.716Z,90.75
2023-02-16T06:29:43.444Z,97.40
2023-02-16T06:32:10.822Z,116.78
2023-02-16T06:34:37.694Z,100.28
2023-02-16T06:37:04.984Z,90.40
2023-02-16T06:39:32.095Z,87.38
2023-02-16T06:41:58.872Z,77.68
2023-02-16T06:44:25.600Z,79.55
2023-02-16T06:46:52.396Z,79.07
2023-02-16T06:49:21.040Z,75.57
2023-02-16T06:51:49.442Z,79.30
2023-02-16T06:54:17.070Z,68.82
2023-02-16T06:56:45.140Z,75.30
2023-02-16T06:59:13.238Z,68.75
2023-02-16T07:01:40.365Z,73.90
2023-02-16T07:04:08.084Z,68.80
2023-02-16T07:06:35.132Z,68.35
2023-02-16T07:09:02.304Z,63.65
2023-02-16T07:11:29.778Z,67.35
2023-02-16T07:13:56.972Z,59.50
2023-02-16T07:16:24.016Z,64.53
2023-02-16T07:18:51.480Z,65.57
2023-02-16T07:21:18.655Z,63.55
2023-02-16T07:23:45.835Z,62.83
2023-02-16T07:26:12.645Z,64.93
2023-02-16T07:28:39.850Z,56.08
2023-02-16T07:31:08.885Z,49.88
2023-02-16T07:33:36.409Z,52.38
2023-02-16T07:36:03.802Z,48.22
2023-02-16T07:38:31.223Z,56.95
2023-02-16T07:40:58.901Z,52.92
2023-02-16T07:43:26.929Z,46.30
2023-02-16T07:45:54.211Z,42.67
2023-02-16T07:48:22.039Z,43.85
2023-02-16T07:50:48.809Z,38.30
2023-02-16T07:53:15.950Z,39.13
2023-02-16T07:55:44.299Z,32.90
2023-02-16T07:58:11.697Z,28.27
2023-02-16T08:00:38.562Z,38.55
2023-02-16T08:03:06.347Z,33.53
2023-02-16T08:05:34.528Z,33.88
2023-02-16T08:08:01.677Z,35.45
2023-02-16T08:10:28.451Z,31.00
2023-02-16T08:12:55.256Z,29.83
2023-02-16T08:15:22.107Z,26.65
2023-02-16T08:17:49.407Z,32.30
2023-02-16T08:20:16.162Z,73.55
2023-02-16T08:22:44.181Z,31.75
2023-02-16T08:25:12.519Z,33.42
2023-02-16T08:27:39.241Z,34.35
2023-02-16T08:30:10.431Z,30.08
2023-02-16T08:32:37.568Z,32.28
2023-02-16T08:35:04.898Z,27.70
2023-02-16T08:37:31.624Z,29.48
2023-02-16T08:40:00.826Z,25.73
2023-02-16T08:42:27.658Z,26.70
2023-02-16T08:44:55.011Z,33.20
2023-02-16T08:47:21.837Z,32.17
2023-02-16T08:49:48.583Z,37.38
2023-02-16T08:52:15.354Z,26.98
2023-02-16T08:54:42.758Z,26.80
2023-02-16T08:57:09.608Z,27.08
2023-02-16T08:59:36.826Z,28.00
2023-02-16T09:02:04.022Z,37.40
2023-02-16T09:04:31.244Z,29.33
2023-02-16T09:06:59.701Z,27.02
2023-02-16T09:09:27.677Z,27.98
2023-02-16T09:11:55.055Z,32.10
2023-02-16T09:14:23.402Z,28.42
2023-02-16T09:16:50.570Z,25.25
2023-02-16T09:19:21.133Z,31.27
2023-02-16T09:21:50.878Z,31.88
2023-02-16T09:24:18.248Z,30.33
2023-02-16T09:26:45.437Z,24.77
2023-02-16T09:29:16.487Z,30.92
2023-02-16T09:31:44.503Z,30.15
2023-02-16T09:34:26.798Z,30.60
2023-02-16T09:36:54.239Z,27.83
2023-02-16T09:39:22.011Z,26.00
2023-02-16T09:42:01.320Z,24.73
2023-02-16T09:44:43.869Z,30.77
2023-02-16T09:47:31.490Z,26.77
2023-02-16T09:50:04.250Z,28.00
2023-02-16T09:52:44.934Z,25.30
2023-02-16T09:55:18.064Z,27.70
2023-02-16T09:58:18.879Z,21.20
2023-02-16T10:00:53.823Z,38.92
2023-02-16T10:03:51.669Z,23.20
2023-02-16T10:06:36.156Z,24.40
2023-02-16T10:09:10.028Z,28.65
2023-02-16T10:11:46.609Z,35.00
2023-02-16T10:14:19.102Z,29.90
2023-02-16T10:17:03.870Z,22.70
2023-02-16T10:19:55.160Z,25.15
2023-02-16T10:22:33.455Z,26.40
2023-02-16T10:25:22.153Z,28.02
2023-02-16T10:27:58.266Z,27.05
2023-02-16T10:30:25.535Z,27.83
2023-02-16T10:33:13.093Z,28.20
2023-02-16T10:35:47.725Z,25.33
2023-02-16T10:38:28.761Z,32.00
2023-02-16T10:41:01.615Z,30.15
2023-02-16T10:43:31.472Z,36.95
2023-02-16T10:46:00.842Z,24.20
2023-02-16T10:48:27.950Z,24.23
2023-02-16T10:50:59.178Z,27.33
2023-02-16T10:53:32.241Z,22.25
2023-02-16T10:55:59.690Z,28.73
2023-02-16T10:58:34.040Z,32.50
2023-02-16T11:01:20.393Z,29.48
2023-02-16T11:03:50.863Z,23.95
2023-02-16T11:06:24.283Z,25.42
2023-02-16T11:08:55.390Z,27.52
2023-02-16T11:11:26.823Z,30.35
2023-02-16T11:14:09.659Z,26.88
2023-02-16T11:16:37.127Z,27.17
2023-02-16T11:19:13.224Z,23.42
2023-02-16T11:21:52.556Z,24.48
2023-02-16T11:24:29.566Z,22.80
2023-02-16T11:27:07.234Z,22.42
2023-02-16T11:29:34.905Z,20.95
2023-02-16T11:32:09.360Z,24.65
2023-02-16T11:34:37.847Z,25.77
2023-02-16T11:37:12.625Z,24.75
2023-02-16T11:39:41.892Z,24.50
2023-02-16T11:42:42.672Z,28.92
2023-02-16T11:45:24.373Z,18.67
2023-02-16T11:48:00.317Z,23.00
2023-02-16T11:50:38.690Z,24.33
2023-02-16T11:53:12.277Z,26.75
2023-02-16T11:55:43.221Z,27.33
2023-02-16T11:58:22.677Z,25.75
2023-02-16T12:01:11.673Z,23.45
2023-02-16T12:03:59.870Z,27.13
2023-02-16T12:06:44.412Z,27.80
2023-02-16T12:09:26.351Z,27.50
2023-02-16T12:11:59.162Z,25.35
2023-02-16T12:14:56.903Z,31.48
2023-02-16T12:17:32.554Z,24.00
2023-02-16T12:20:46.367Z,26.23
2023-02-16T12:23:24.053Z,29.90
2023-02-16T12:26:27.305Z,28.20
2023-02-16T12:29:29.284Z,29.00
2023-02-16T12:32:05.023Z,38.63
2023-02-16T12:34:49.222Z,24.10
2023-02-16T12:37:43.317Z,27.42
2023-02-16T12:40:52.565Z,27.35
2023-02-16T12:43:46.711Z,33.35
2023-02-16T12:46:33.930Z,32.15
2023-02-16T12:49:03.004Z,25.98
2023-02-16T12:51:54.069Z,29.90
2023-02-16T12:54:29.561Z,29.77
2023-02-16T12:57:10.923Z,31.77
2023-02-16T12:59:41.966Z,27.27
2023-02-16T13:02:36.206Z,31.13
2023-02-16T13:05:10.185Z,32.90
2023-02-16T13:07:49.224Z,28.80
2023-02-16T13:10:39.787Z,24.40
2023-02-16T13:13:14.650Z,27.92
2023-02-16T13:15:48.576Z,30.73
2023-02-16T13:18:28.571Z,37.05
2023-02-16T13:21:11.072Z,33.05
2023-02-16T13:24:03.399Z,27.33
2023-02-16T13:26:36.882Z,34.75
2023-02-16T13:29:17.625Z,29.23
2023-02-16T13:31:45.035Z,33.38
2023-02-16T13:34:34.163Z,31.25
2023-02-16T13:37:39.904Z,34.78
2023-02-16T13:40:15.433Z,31.42
2023-02-16T13:42:42.656Z,31.75
2023-02-16T13:45:23.062Z,38.53
2023-02-16T13:47:54.066Z,34.30
2023-02-16T13:50:22.109Z,35.30
2023-02-16T13:52:53.262Z,27.98
2023-02-16T13:55:33.435Z,33.95
2023-02-16T13:58:12.641Z,29.23
2023-02-16T14:00:47.977Z,27.20
2023-02-16T14:03:17.754Z,30.88
2023-02-16T14:05:46.619Z,28.50
2023-02-16T14:08:19.022Z,33.17
2023-02-16T14:10:55.306Z,31.50
2023-02-16T14:13:29.186Z,31.25
2023-02-16T14:15:58.862Z,28.75
2023-02-16T14:18:45.975Z,29.52
2023-02-16T14:21:26.763Z,33.92
2023-02-16T14:24:03.151Z,32.80
2023-02-16T14:26:32.409Z,30.50
2023-02-16T14:29:02.975Z,34.00
2023-02-16T14:31:33.304Z,34.55
2023-02-16T14:34:12.518Z,32.38
2023-02-16T14:37:11.720Z,30.45
2023-02-16T14:40:04.021Z,31.08
2023-02-16T14:42:33.520Z,28.42
2023-02-16T14:45:29.266Z,35.97
2023-02-16T14:48:27.289Z,31.05
2023-02-16T14:51:25.371Z,34.45
2023-02-16T14:54:18.057Z,25.55
2023-02-16T14:57:18.618Z,27.58
2023-02-16T14:59:52.493Z,30.65
2023-02-16T15:02:26.820Z,25.85
2023-02-16T15:04:53.833Z,33.80
2023-02-16T15:07:22.240Z,28.92
2023-02-16T15:09:57.567Z,32.03
2023-02-16T15:12:30.858Z,31.30
2023-02-16T15:15:04.571Z,34.38
2023-02-16T15:17:50.607Z,26.08
2023-02-16T15:20:38.553Z,27.50
2023-02-16T15:23:16.830Z,26.83
2023-02-16T15:25:55.728Z,31.98
2023-02-16T15:28:26.800Z,22.38
2023-02-16T15:31:25.971Z,31.42
2023-02-16T15:33:59.295Z,36.63
2023-02-16T15:36:38.158Z,32.17
2023-02-16T15:39:28.251Z,31.20
2023-02-16T15:42:23.689Z,38.67
2023-02-16T15:44:51.353Z,38.40
2023-02-16T15:47:24.230Z,36.22
2023-02-16T15:49:52.056Z,30.60
2023-02-16T15:52:27.161Z,35.42
2023-02-16T15:54:55.777Z,39.58
2023-02-16T15:57:31.105Z,30.30
2023-02-16T16:00:01.097Z,36.88
2023-02-16T16:02:41.604Z,34.47
2023-02-16T16:05:22.622Z,38.47
2023-02-16T16:07:50.041Z,38.10
2023-02-16T16:10:25.550Z,37.75
2023-02-16T16:12:57.206Z,37.53
2023-02-16T16:15:26.760Z,40.42
2023-02-16T16:17:54.971Z,40.05
2023-02-16T16:20:42.050Z,34.05
2023-02-16T16:23:17.637Z,37.33
2023-02-16T16:25:47.813Z,37.10
2023-02-16T16:28:33.675Z,43.53
2023-02-16T16:31:10.022Z,39.53
2023-02-16T16:33:55.639Z,37.30
2023-02-16T16:36:41.542Z,36.03
2023-02-16T16:39:10.760Z,35.22
2023-02-16T16:41:37.932Z,50.55
2023-02-16T16:44:05.217Z,38.70
2023-02-16T16:46:33.076Z,39.28
2023-02-16T16:49:04.490Z,46.78
2023-02-16T16:51:31.721Z,51.60
2023-02-16T16:54:02.301Z,39.63
2023-02-16T16:56:30.851Z,48.70
2023-02-16T16:58:59.016Z,48.58
2023-02-16T17:01:28.632Z,41.90
2023-02-16T17:03:55.972Z,49.75
2023-02-16T17:06:24.395Z,36.38
2023-02-16T17:08:51.926Z,43.67
2023-02-16T17:11:38.190Z,44.15
2023-02-16T17:14:10.874Z,41.08
2023-02-16T17:16:42.275Z,48.35
2023-02-16T17:19:13.147Z,40.00
2023-02-16T17:21:40.037Z,48.08
2023-02-16T17:24:13.104Z,47.17
2023-02-16T17:26:41.171Z,48.10
2023-02-16T17:29:08.436Z,45.38
2023-02-16T17:31:36.170Z,46.22
2023-02-16T17:34:02.977Z,49.15
2023-02-16T17:36:29.783Z,54.08
2023-02-16T17:38:56.590Z,56.45
2023-02-16T17:41:26.448Z,45.53
2023-02-16T17:43:53.408Z,51.03
2023-02-16T17:46:21.806Z,51.20
2023-02-16T17:48:55.358Z,43.63
2023-02-16T17:51:24.189Z,47.58
2023-02-16T17:53:51.512Z,50.40
2023-02-16T17:56:21.429Z,59.17
2023-02-16T17:58:48.462Z,54.30
2023-02-16T18:01:16.992Z,53.25
2023-02-16T18:03:43.905Z,49.63
2023-02-16T18:06:19.290Z,57.33
2023-02-16T18:08:46.726Z,50.63
2023-02-16T18:11:15.456Z,51.40
2023-02-16T18:13:42.755Z,61.70
2023-02-16T18:16:15.380Z,49.70
2023-02-16T18:18:42.213Z,52.30
2023-02-16T18:21:09.573Z,49.67
2023-02-16T18:23:36.454Z,46.70
2023-02-16T18:26:04.322Z,49.22
2023-02-16T18:28:34.715Z,55.25
2023-02-16T18:31:02.045Z,51.22
2023-02-16T18:33:29.282Z,60.00
2023-02-16T18:36:00.135Z,50.25
2023-02-16T18:38:27.711Z,53.05
2023-02-16T18:40:55.254Z,48.65
2023-02-16T18:43:24.689Z,58.30
2023-02-16T18:45:51.722Z,56.05
2023-02-16T18:48:18.520Z,61.20
2023-02-16T18:50:45.581Z,61.05
2023-02-16T18:53:12.973Z,65.05
2023-02-16T18:55:40.186Z,58.05
2023-02-16T18:58:08.576Z,46.78
2023-02-16T19:00:36.984Z,54.60
2023-02-16T19:03:04.307Z,61.58
2023-02-16T19:05:32.046Z,53.25
2023-02-16T19:08:01.498Z,53.65
2023-02-16T19:10:28.723Z,54.63
2023-02-16T19:12:55.480Z,46.45
2023-02-16T19:15:22.242Z,48.13
2023-02-16T19:17:49.580Z,56.25
2023-02-16T19:20:18.579Z,44.55
2023-02-16T19:22:48.784Z,42.67
2023-02-16T19:25:15.609Z,53.42
2023-02-16T19:27:43.586Z,52.33
2023-02-16T19:30:12.377Z,51.22
2023-02-16T19:32:41.254Z,48.95
2023-02-16T19:35:12.597Z,56.38
2023-02-16T19:37:39.749Z,51.42
2023-02-16T19:40:10.045Z,57.97
2023-02-16T19:42:38.561Z,50.88
2023-02-16T19:45:05.743Z,50.15
2023-02-16T19:47:33.003Z,51.28
2023-02-16T19:50:00.275Z,60.70
2023-02-16T19:52:27.497Z,45.20
2023-02-16T19:54:54.530Z,51.75
2023-02-16T19:57:21.870Z,54.55
2023-02-16T19:59:51.341Z,48.75
2023-02-16T20:02:18.174Z,55.42
2023-02-16T20:04:45.763Z,54.20
2023-02-16T20:07:13.012Z,61.10
2023-02-16T20:09:41.259Z,53.10
2023-02-16T20:12:08.169Z,57.70
2023-02-16T20:14:35.302Z,45.95
2023-02-16T20:17:02.089Z,50.10
2023-02-16T20:19:29.260Z,45.72
2023-02-16T20:21:56.037Z,53.38
2023-02-16T20:24:22.835Z,49.72
2023-02-16T20:26:52.454Z,61.90
2023-02-16T20:29:23.572Z,54.20
2023-02-16T20:31:54.461Z,52.47
2023-02-16T20:34:22.266Z,68.22
2023-02-16T20:36:49.591Z,49.53
2023-02-16T20:39:16.551Z,48.05
2023-02-16T20:41:43.889Z,52.20
2023-02-16T20:44:13.840Z,54.28
2023-02-16T20:46:42.186Z,42.83
2023-02-16T20:49:09.667Z,55.58
2023-02-16T20:51:37.533Z,45.63
2023-02-16T20:54:05.537Z,46.28
2023-02-16T20:56:32.771Z,46.67
2023-02-16T20:59:00.082Z,38.70
2023-02-16T21:01:34.150Z,47.25
2023-02-16T21:04:01.593Z,44.00
2023-02-16T21:06:28.703Z,49.13
2023-02-16T21:08:56.478Z,40.67
2023-02-16T21:11:24.552Z,44.22
2023-02-16T21:13:52.342Z,42.88
2023-02-16T21:16:19.392Z,42.58
2023-02-16T21:18:46.243Z,43.08
2023-02-16T21:21:15.789Z,45.75
2023-02-16T21:23:52.117Z,40.33
2023-02-16T21:26:21.694Z,36.50
2023-02-16T21:28:49.004Z,40.30
2023-02-16T21:31:18.785Z,44.42
2023-02-16T21:33:45.996Z,42.45
2023-02-16T21:36:20.021Z,43.45
2023-02-16T21:38:46.888Z,41.55
2023-02-16T21:41:25.987Z,41.58
2023-02-16T21:44:14.061Z,39.70
2023-02-16T21:46:46.191Z,41.47
2023-02-16T21:49:17.222Z,42.63
2023-02-16T21:51:45.187Z,36.35
2023-02-16T21:54:15.211Z,50.20
2023-02-16T21:56:43.261Z,38.63
2023-02-16T21:59:14.219Z,47.30
2023-02-16T22:01:44.427Z,35.28
2023-02-16T22:04:14.454Z,39.70
2023-02-16T22:06:44.085Z,43.95
2023-02-16T22:09:17.948Z,34.42
2023-02-16T22:11:45.640Z,40.25
2023-02-16T22:14:12.674Z,39.92
2023-02-16T22:16:40.205Z,38.08
2023-02-16T22:19:11.102Z,44.65
2023-02-16T22:21:41.139Z,37.17
2023-02-16T22:24:08.902Z,37.75
2023-02-16T22:26:36.598Z,41.47
2023-02-16T22:29:05.696Z,32.80
2023-02-16T22:31:32.719Z,37.55
2023-02-16T22:34:02.048Z,41.75
2023-02-16T22:36:30.106Z,41.97
2023-02-16T22:38:57.228Z,36.58
2023-02-16T22:41:24.804Z,30.60
2023-02-16T22:43:55.908Z,32.20
2023-02-16T22:46:24.733Z,34.38
2023-02-16T22:48:52.782Z,29.48
2023-02-16T22:51:20.954Z,41.42
2023-02-16T22:53:48.356Z,40.22
2023-02-16T22:56:18.234Z,40.55
2023-02-16T22:58:46.008Z,33.85
2023-02-16T23:01:15.856Z,36.28
2023-02-16T23:03:43.062Z,35.38
2023-02-16T23:06:15.087Z,29.58
2023-02-16T23:08:42.754Z,30.63
2023-02-16T23:11:09.925Z,31.52
2023-02-16T23:13:37.115Z,31.20
2023-02-16T23:16:11.112Z,31.52
2023-02-16T23:18:38.033Z,42.90
2023-02-16T23:21:19.718Z,33.33
2023-02-16T23:23:47.867Z,34.60
2023-02-16T23:26:15.221Z,33.95
2023-02-16T23:28:43.431Z,33.00
2023-02-16T23:31:15.547Z,34.47
2023-02-16T23:33:42.509Z,33.58
2023-02-16T23:36:10.675Z,38.13
2023-02-16T23:38:37.722Z,28.95
2023-02-16T23:41:07.921Z,34.10
2023-02-16T23:43:35.516Z,39.50
2023-02-16T23:46:03.565Z,39.83
2023-02-16T23:48:30.922Z,35.30
2023-02-16T23:50:58.380Z,31.52
2023-02-16T23:53:27.133Z,29.42
2023-02-16T23:56:08.480Z,39.08
2023-02-16T23:58:45.152Z,37.30
